Time;durP1;ratioP1;P1;durP2;ratioP2;P2;SDS_P1;SDS_P2;PMS_P1;PMS_P2;Temp;Humidity;BMP_temperature;BMP_pressure;BME280_temperature;BME280_humidity;BME280_pressure;Samples;Min_cycle;Max_cycle;Signal;HPM_P1;HPM_P2
2024/02/13 06:02:35;;;;;;;14.03;4.63;;;;;;;;;;4973847;28;20536;-79
2024/02/13 06:05:01;;;;;;;17.23;4.80;;;;;;;;;;4974373;28;20479;-79
2024/02/13 06:07:27;;;;;;;16.67;4.73;;;;;;;;;;4975199;28;20420;-78
2024/02/13 06:09:54;;;;;;;15.90;4.80;;;;;;;;;;4974588;28;20435;-78
2024/02/13 06:12:20;;;;;;;13.50;5.10;;;;;;;;;;5003809;22;20440;-72
2024/02/13 06:14:47;;;;;;;22.97;6.03;;;;;;;;;;5013365;28;20434;-72
2024/02/13 06:17:13;;;;;;;13.97;4.17;;;;;;;;;;5013697;28;20410;-73
2024/02/13 06:19:39;;;;;;;9.50;4.70;;;;;;;;;;5022677;28;20935;-72
2024/02/13 06:22:05;;;;;;;9.70;3.63;;;;;;;;;;5033338;28;20983;-72
2024/02/13 06:24:31;;;;;;;7.57;3.20;;;;;;;;;;5033526;28;20429;-72
2024/02/13 06:26:57;;;;;;;11.77;3.13;;;;;;;;;;5033502;28;20880;-72
2024/02/13 06:29:23;;;;;;;10.43;3.57;;;;;;;;;;5033547;28;20422;-72
2024/02/13 06:31:52;;;;;;;15.90;3.50;;;;;;;;;;5032808;28;20780;-72
2024/02/13 06:34:19;;;;;;;12.80;3.10;;;;;;;;;;5033233;28;20803;-72
2024/02/13 06:36:45;;;;;;;5.43;2.57;;;;;;;;;;5033136;28;20409;-72
2024/02/13 06:39:12;;;;;;;8.80;3.27;;;;;;;;;;5033201;28;20401;-72
2024/02/13 06:41:39;;;;;;;4.80;2.70;;;;;;;;;;5032758;28;20435;-73
2024/02/13 06:44:05;;;;;;;10.83;3.13;;;;;;;;;;5033472;28;20442;-71
2024/02/13 06:46:31;;;;;;;10.23;3.40;;;;;;;;;;5016592;28;20434;-73
2024/02/13 06:48:57;;;;;;;12.50;4.60;;;;;;;;;;5013163;28;20421;-74
2024/02/13 06:51:24;;;;;;;13.47;4.17;;;;;;;;;;5026232;28;20494;-74
2024/02/13 06:53:50;;;;;;;17.83;4.40;;;;;;;;;;5032809;28;20803;-74
2024/02/13 06:56:17;;;;;;;13.73;4.60;;;;;;;;;;5032827;28;20409;-74
2024/02/13 06:58:43;;;;;;;21.30;6.20;;;;;;;;;;5032884;28;20417;-74
2024/02/13 07:01:09;;;;;;;14.33;4.10;;;;;;;;;;5031201;28;20429;-74
2024/02/13 07:03:35;;;;;;;20.93;5.73;;;;;;;;;;5032923;28;20994;-74
2024/02/13 07:06:02;;;;;;;20.93;4.33;;;;;;;;;;5039696;28;20409;-74
2024/02/13 07:08:27;;;;;;;15.40;4.90;;;;;;;;;;5034642;28;20401;-75
2024/02/13 07:10:53;;;;;;;12.93;4.17;;;;;;;;;;5033088;28;20416;-74
2024/02/13 07:13:20;;;;;;;10.40;4.70;;;;;;;;;;5032614;28;20544;-74
2024/02/13 07:15:46;;;;;;;7.77;4.53;;;;;;;;;;5030981;28;20417;-72
2024/02/13 07:18:12;;;;;;;8.03;5.03;;;;;;;;;;5032415;28;20424;-74
2024/02/13 07:20:38;;;;;;;19.33;4.50;;;;;;;;;;5032533;28;20436;-74
2024/02/13 07:23:04;;;;;;;13.53;4.63;;;;;;;;;;5032513;28;20893;-75
2024/02/13 07:25:30;;;;;;;13.47;4.27;;;;;;;;;;5032401;28;20449;-75
2024/02/13 07:27:57;;;;;;;20.93;4.80;;;;;;;;;;5032326;28;20416;-74
2024/02/13 07:30:23;;;;;;;13.07;6.00;;;;;;;;;;5028898;28;20409;-73
2024/02/13 07:32:49;;;;;;;13.07;4.67;;;;;;;;;;5012203;28;20426;-73
2024/02/13 07:35:15;;;;;;;11.83;3.90;;;;;;;;;;5012326;28;20509;-72
2024/02/13 07:37:41;;;;;;;15.30;5.20;;;;;;;;;;5012641;28;20410;-73
2024/02/13 07:40:07;;;;;;;16.10;4.67;;;;;;;;;;5012333;28;20406;-72
2024/02/13 07:42:33;;;;;;;7.30;4.27;;;;;;;;;;5012372;28;20477;-71
2024/02/13 07:44:59;;;;;;;12.93;5.10;;;;;;;;;;5021766;28;20500;-71
2024/02/13 07:47:26;;;;;;;11.80;4.93;;;;;;;;;;5013994;28;20418;-71
2024/02/13 07:49:55;;;;;;;4.77;3.40;;;;;;;;;;5012086;28;20413;-71
2024/02/13 07:52:21;;;;;;;11.30;4.30;;;;;;;;;;5012073;28;20422;-71
2024/02/13 07:54:48;;;;;;;12.17;4.70;;;;;;;;;;5012636;28;20460;-72
2024/02/13 07:57:16;;;;;;;17.17;4.53;;;;;;;;;;5027675;28;20417;-71
2024/02/13 07:59:42;;;;;;;8.97;3.30;;;;;;;;;;5031879;28;20421;-71
2024/02/13 08:02:12;;;;;;;10.90;4.87;;;;;;;;;;5024746;28;20470;-71
2024/02/13 08:04:38;;;;;;;12.33;4.50;;;;;;;;;;5031863;28;20911;-71
2024/02/13 08:07:04;;;;;;;13.57;4.77;;;;;;;;;;5017774;28;20853;-72
2024/02/13 08:09:32;;;;;;;10.00;4.70;;;;;;;;;;5012190;28;20769;-72
2024/02/13 08:12:01;;;;;;;7.60;4.37;;;;;;;;;;5011896;28;20430;-72
2024/02/13 08:14:27;;;;;;;17.83;4.93;;;;;;;;;;5021149;28;20449;-71
2024/02/13 08:16:53;;;;;;;20.23;6.50;;;;;;;;;;5019237;28;20426;-71
2024/02/13 08:19:19;;;;;;;10.53;4.90;;;;;;;;;;5014448;28;20487;-71
2024/02/13 08:21:45;;;;;;;18.27;5.57;;;;;;;;;;5015673;28;20467;-72
2024/02/13 08:24:12;;;;;;;36.60;10.40;;;;;;;;;;5015538;28;20540;-72
2024/02/13 08:26:38;;;;;;;15.00;6.67;;;;;;;;;;5015950;28;20909;-71
2024/02/13 08:29:04;;;;;;;10.50;5.37;;;;;;;;;;5021948;28;20423;-72
2024/02/13 08:31:30;;;;;;;16.23;6.00;;;;;;;;;;5032147;28;20421;-78
2024/02/13 08:33:56;;;;;;;17.70;4.60;;;;;;;;;;5035876;28;20976;-76
2024/02/13 08:36:24;;;;;;;14.70;4.60;;;;;;;;;;5039352;28;20405;-73
2024/02/13 08:38:50;;;;;;;17.37;5.27;;;;;;;;;;5035268;28;20425;-74
2024/02/13 08:41:16;;;;;;;13.07;4.70;;;;;;;;;;5013787;28;20448;-73
2024/02/13 08:43:42;;;;;;;6.90;4.90;;;;;;;;;;5009556;28;20501;-73
2024/02/13 08:46:10;;;;;;;12.37;4.83;;;;;;;;;;5013855;28;20460;-74
2024/02/13 08:48:37;;;;;;;15.47;4.40;;;;;;;;;;5016588;28;20758;-76
2024/02/13 08:51:03;;;;;;;12.10;4.40;;;;;;;;;;5032955;28;20409;-76
2024/02/13 08:53:29;;;;;;;10.10;3.80;;;;;;;;;;5035386;28;20800;-77
2024/02/13 08:55:55;;;;;;;8.23;4.30;;;;;;;;;;5034104;28;20409;-76
2024/02/13 08:58:21;;;;;;;9.90;4.40;;;;;;;;;;5033708;28;20417;-75
2024/02/13 09:00:47;;;;;;;16.00;5.63;;;;;;;;;;5034761;28;20409;-76
2024/02/13 09:03:13;;;;;;;12.10;4.23;;;;;;;;;;5035019;28;20525;-76
2024/02/13 09:05:39;;;;;;;16.17;5.20;;;;;;;;;;5034960;28;20775;-76
2024/02/13 09:08:05;;;;;;;13.20;4.60;;;;;;;;;;5035514;28;20419;-76
2024/02/13 09:10:31;;;;;;;17.20;5.30;;;;;;;;;;5034973;28;20900;-76
2024/02/13 09:12:57;;;;;;;10.03;4.27;;;;;;;;;;5034915;28;20461;-76
2024/02/13 09:15:25;;;;;;;11.53;4.27;;;;;;;;;;5035194;28;20409;-76
2024/02/13 09:17:52;;;;;;;9.47;4.30;;;;;;;;;;5034919;28;20788;-76
2024/02/13 09:20:21;;;;;;;15.90;3.43;;;;;;;;;;5034219;28;20413;-75
2024/02/13 09:22:47;;;;;;;10.50;3.63;;;;;;;;;;5033964;28;20484;-75
2024/02/13 09:25:19;;;;;;;8.10;3.40;;;;;;;;;;5034884;28;20888;-75
2024/02/13 09:27:48;;;;;;;6.67;2.80;;;;;;;;;;5034724;28;20484;-75
2024/02/13 09:30:14;;;;;;;11.53;2.73;;;;;;;;;;5033667;28;20467;-75
2024/02/13 09:32:40;;;;;;;8.40;2.60;;;;;;;;;;5034472;28;20502;-75
2024/02/13 09:35:07;;;;;;;7.33;2.87;;;;;;;;;;5034333;28;20405;-75
2024/02/13 09:37:34;;;;;;;8.20;2.30;;;;;;;;;;5034799;28;20401;-75
2024/02/13 09:40:00;;;;;;;4.17;2.43;;;;;;;;;;5034144;28;20413;-75
2024/02/13 09:42:27;;;;;;;10.37;3.83;;;;;;;;;;5034440;28;20456;-76
2024/02/13 09:44:53;;;;;;;22.77;3.77;;;;;;;;;;5033024;28;20409;-75
2024/02/13 09:47:19;;;;;;;16.43;4.37;;;;;;;;;;5034584;28;20413;-76
2024/02/13 09:49:47;;;;;;;14.07;3.30;;;;;;;;;;5034098;28;20893;-76
2024/02/13 09:52:14;;;;;;;9.17;3.43;;;;;;;;;;5034098;28;20421;-75
2024/02/13 09:54:44;;;;;;;8.20;3.70;;;;;;;;;;5034156;28;20795;-77
2024/02/13 09:57:10;;;;;;;8.77;3.00;;;;;;;;;;5036944;28;20410;-76
2024/02/13 09:59:37;;;;;;;6.00;2.53;;;;;;;;;;5036940;28;20405;-74
2024/02/13 10:02:05;;;;;;;9.57;2.80;;;;;;;;;;5034432;28;20985;-74
2024/02/13 10:04:31;;;;;;;19.57;2.93;;;;;;;;;;5034880;28;20425;-77
2024/02/13 10:07:00;;;;;;;10.43;2.80;;;;;;;;;;5046084;28;20433;-75
2024/02/13 10:09:29;;;;;;;5.60;2.50;;;;;;;;;;5035288;28;20398;-75
2024/02/13 10:11:55;;;;;;;11.13;2.60;;;;;;;;;;5033028;28;20429;-74
2024/02/13 10:14:21;;;;;;;4.37;2.60;;;;;;;;;;5034244;28;20457;-76
2024/02/13 10:16:50;;;;;;;9.70;2.83;;;;;;;;;;5034058;28;20420;-75
2024/02/13 10:19:17;;;;;;;10.93;3.73;;;;;;;;;;5033842;28;20413;-75
2024/02/13 10:21:49;;;;;;;8.00;2.40;;;;;;;;;;5033565;28;20888;-75
2024/02/13 10:24:15;;;;;;;6.00;2.97;;;;;;;;;;5033955;28;20436;-75
2024/02/13 10:26:41;;;;;;;5.30;2.30;;;;;;;;;;5033496;28;20413;-75
2024/02/13 10:29:07;;;;;;;3.93;1.90;;;;;;;;;;5033552;28;20467;-76
2024/02/13 10:31:37;;;;;;;7.53;1.87;;;;;;;;;;5033445;28;20409;-75
2024/02/13 10:34:07;;;;;;;4.60;1.77;;;;;;;;;;5033413;28;20421;-75
2024/02/13 10:36:33;;;;;;;1.27;1.20;;;;;;;;;;5033331;28;20405;-75
2024/02/13 10:39:03;;;;;;;9.70;2.33;;;;;;;;;;5033510;28;20405;-75
2024/02/13 10:41:33;;;;;;;3.80;2.20;;;;;;;;;;5032762;28;20773;-75
2024/02/13 10:43:59;;;;;;;6.13;2.50;;;;;;;;;;5032768;28;20464;-75
2024/02/13 10:46:28;;;;;;;8.87;2.17;;;;;;;;;;5033186;28;20424;-76
2024/02/13 10:48:57;;;;;;;3.17;1.90;;;;;;;;;;5033091;28;20466;-75
2024/02/13 10:51:25;;;;;;;3.23;1.80;;;;;;;;;;5032988;28;20405;-75
2024/02/13 10:53:51;;;;;;;4.93;2.07;;;;;;;;;;5032952;28;20429;-74
2024/02/13 10:56:17;;;;;;;7.70;1.70;;;;;;;;;;5032899;28;20420;-75
2024/02/13 10:58:44;;;;;;;9.43;2.20;;;;;;;;;;5032867;28;20496;-75
2024/02/13 11:01:14;;;;;;;4.50;2.13;;;;;;;;;;5032650;28;20413;-75
2024/02/13 11:03:40;;;;;;;8.37;2.23;;;;;;;;;;5033471;28;20468;-75
2024/02/13 11:06:06;;;;;;;9.60;2.27;;;;;;;;;;5033575;28;20410;-75
2024/02/13 11:08:32;;;;;;;2.63;1.70;;;;;;;;;;5033364;28;20920;-75
2024/02/13 11:11:06;;;;;;;3.00;1.27;;;;;;;;;;5032544;28;20484;-74
2024/02/13 11:13:34;;;;;;;3.17;1.27;;;;;;;;;;5032527;28;20986;-75
2024/02/13 11:16:00;;;;;;;2.77;1.20;;;;;;;;;;5032616;28;20410;-75
2024/02/13 11:18:28;;;;;;;3.50;1.57;;;;;;;;;;5032378;28;20406;-75
2024/02/13 11:20:55;;;;;;;3.37;1.70;;;;;;;;;;5032450;28;20409;-76
2024/02/13 11:23:28;;;;;;;5.10;1.80;;;;;;;;;;5032225;28;20980;-76
2024/02/13 11:25:57;;;;;;;3.70;1.27;;;;;;;;;;5032759;28;20496;-76
2024/02/13 11:28:23;;;;;;;2.53;1.47;;;;;;;;;;5032943;28;20983;-77
2024/02/13 11:30:50;;;;;;;3.43;1.20;;;;;;;;;;5032776;28;20412;-76
2024/02/13 11:33:19;;;;;;;3.57;1.50;;;;;;;;;;5032837;28;20433;-77
2024/02/13 11:35:47;;;;;;;2.77;1.40;;;;;;;;;;5032667;28;20413;-76
2024/02/13 11:38:18;;;;;;;5.73;1.50;;;;;;;;;;5032733;28;20851;-77
2024/02/13 11:40:44;;;;;;;1.83;1.40;;;;;;;;;;5033078;28;20420;-76
2024/02/13 11:43:28;;;;;;;4.63;1.27;;;;;;;;;;5032671;28;20468;-77
2024/02/13 11:46:00;;;;;;;6.83;1.60;;;;;;;;;;5033127;28;20463;-77
2024/02/13 11:48:26;;;;;;;4.77;2.30;;;;;;;;;;5032672;28;20412;-77
2024/02/13 11:50:55;;;;;;;2.77;1.60;;;;;;;;;;5031073;28;20552;-77
2024/02/13 11:53:21;;;;;;;2.73;1.10;;;;;;;;;;5032059;28;20437;-76
2024/02/13 11:55:47;;;;;;;2.43;1.30;;;;;;;;;;5032834;28;20413;-76
2024/02/13 11:58:21;;;;;;;6.17;1.57;;;;;;;;;;5032492;28;20424;-76
2024/02/13 12:01:06;;;;;;;1.80;1.20;;;;;;;;;;5032087;28;20417;-76
2024/02/13 12:03:34;;;;;;;3.93;1.10;;;;;;;;;;5031969;28;20468;-75
2024/02/13 12:06:05;;;;;;;2.63;1.43;;;;;;;;;;5031999;28;20525;-76
2024/02/13 12:08:32;;;;;;;3.87;1.37;;;;;;;;;;5032308;28;20765;-76
2024/02/13 12:10:58;;;;;;;2.33;1.30;;;;;;;;;;5031629;28;20405;-75
2024/02/13 12:13:24;;;;;;;2.50;1.37;;;;;;;;;;5031965;28;20452;-75
2024/02/13 12:15:51;;;;;;;1.60;1.10;;;;;;;;;;5032079;28;20409;-75
2024/02/13 12:18:17;;;;;;;1.27;1.13;;;;;;;;;;5032301;28;20440;-76
2024/02/13 12:20:54;;;;;;;1.10;0.90;;;;;;;;;;5031747;28;20900;-76
2024/02/13 12:23:20;;;;;;;3.50;1.40;;;;;;;;;;5032173;28;20464;-75
2024/02/13 12:25:46;;;;;;;1.17;1.07;;;;;;;;;;5031993;28;20405;-76
2024/02/13 12:28:13;;;;;;;2.50;1.10;;;;;;;;;;5032593;28;20448;-76
2024/02/13 12:30:46;;;;;;;3.50;1.50;;;;;;;;;;5032556;28;20440;-76
2024/02/13 12:33:20;;;;;;;3.60;1.43;;;;;;;;;;5032070;28;20543;-76
2024/02/13 12:35:46;;;;;;;5.73;1.93;;;;;;;;;;5031543;28;20441;-75
2024/02/13 12:38:14;;;;;;;2.23;1.30;;;;;;;;;;5031510;28;20413;-77
2024/02/13 12:40:43;;;;;;;1.90;1.30;;;;;;;;;;5031485;28;20424;-77
2024/02/13 12:43:09;;;;;;;1.70;1.07;;;;;;;;;;5031442;28;20460;-77
2024/02/13 12:45:41;;;;;;;3.60;1.50;;;;;;;;;;5031214;28;20420;-75
2024/02/13 12:48:10;;;;;;;1.20;1.00;;;;;;;;;;5031415;28;20478;-76
2024/02/13 12:50:36;;;;;;;1.87;1.40;;;;;;;;;;5031484;28;20760;-75
2024/02/13 12:53:04;;;;;;;3.40;1.30;;;;;;;;;;5031350;28;20441;-76
2024/02/13 12:55:32;;;;;;;2.90;1.47;;;;;;;;;;5030125;28;20491;-75
2024/02/13 12:57:57;;;;;;;3.60;1.50;;;;;;;;;;5031392;28;20428;-76
2024/02/13 13:00:24;;;;;;;2.70;1.33;;;;;;;;;;5031284;28;20401;-76
2024/02/13 13:02:50;;;;;;;1.47;1.37;;;;;;;;;;5031356;28;20469;-76
2024/02/13 13:05:16;;;;;;;3.67;1.47;;;;;;;;;;5032111;28;20401;-76
2024/02/13 13:07:48;;;;;;;6.33;2.10;;;;;;;;;;5034880;28;20470;-75
2024/02/13 13:10:14;;;;;;;3.60;1.50;;;;;;;;;;5034953;28;20409;-76
2024/02/13 13:12:46;;;;;;;3.97;1.87;;;;;;;;;;5034893;28;20445;-76
2024/02/13 13:15:12;;;;;;;1.77;1.10;;;;;;;;;;5034803;28;20405;-76
2024/02/13 13:17:39;;;;;;;4.83;1.40;;;;;;;;;;5034841;28;20405;-76
2024/02/13 13:20:06;;;;;;;4.90;1.73;;;;;;;;;;5034480;28;20445;-76
2024/02/13 13:22:34;;;;;;;3.43;1.60;;;;;;;;;;5034725;28;20460;-76
2024/02/13 13:25:09;;;;;;;2.07;1.60;;;;;;;;;;5034680;28;20410;-77
2024/02/13 13:27:36;;;;;;;4.80;2.03;;;;;;;;;;5035693;28;20928;-76
2024/02/13 13:30:03;;;;;;;4.10;1.60;;;;;;;;;;5034587;28;20436;-77
2024/02/13 13:32:29;;;;;;;6.40;1.80;;;;;;;;;;5034444;28;20496;-76
2024/02/13 13:34:55;;;;;;;4.20;1.60;;;;;;;;;;5034664;28;20508;-76
2024/02/13 13:37:25;;;;;;;6.87;2.87;;;;;;;;;;5034249;28;20417;-76
2024/02/13 13:39:51;;;;;;;4.17;1.57;;;;;;;;;;5034220;28;20421;-76
2024/02/13 13:42:19;;;;;;;2.33;1.73;;;;;;;;;;5032962;28;20464;-76
2024/02/13 13:44:45;;;;;;;6.80;2.20;;;;;;;;;;5034367;28;20420;-76
2024/02/13 13:47:11;;;;;;;5.30;1.30;;;;;;;;;;5034286;28;20405;-77
2024/02/13 13:49:37;;;;;;;3.63;1.60;;;;;;;;;;5034525;28;20437;-75
2024/02/13 13:52:03;;;;;;;4.23;1.27;;;;;;;;;;5034251;28;20402;-75
2024/02/13 13:54:29;;;;;;;1.90;1.23;;;;;;;;;;5034496;28;20520;-75
2024/02/13 13:56:55;;;;;;;3.13;1.47;;;;;;;;;;5034591;28;20520;-75
2024/02/13 13:59:22;;;;;;;1.63;1.10;;;;;;;;;;5034507;28;20414;-75
2024/02/13 14:01:50;;;;;;;6.00;1.20;;;;;;;;;;5023537;28;20836;-75
2024/02/13 14:04:16;;;;;;;5.20;1.30;;;;;;;;;;5014682;28;20778;-75
2024/02/13 14:06:42;;;;;;;2.53;1.30;;;;;;;;;;5015254;28;20457;-77
2024/02/13 14:09:08;;;;;;;1.37;1.30;;;;;;;;;;5014474;28;20912;-78
2024/02/13 14:11:35;;;;;;;2.73;1.27;;;;;;;;;;5019058;28;20410;-74
2024/02/13 14:14:02;;;;;;;1.83;1.10;;;;;;;;;;5033726;28;20456;-73
2024/02/13 14:16:29;;;;;;;5.53;1.40;;;;;;;;;;5016313;28;20433;-74
2024/02/13 14:18:56;;;;;;;5.00;1.67;;;;;;;;;;5032493;28;20825;-75
2024/02/13 14:21:23;;;;;;;2.50;1.43;;;;;;;;;;5032631;28;20417;-74
2024/02/13 14:23:53;;;;;;;4.80;1.27;;;;;;;;;;5033422;28;20468;-75
2024/02/13 14:26:19;;;;;;;1.90;1.30;;;;;;;;;;5018222;28;20437;-73
2024/02/13 14:28:45;;;;;;;4.27;1.60;;;;;;;;;;5031892;28;20924;-72
2024/02/13 14:31:12;;;;;;;4.63;1.70;;;;;;;;;;5018637;28;20418;-73
2024/02/13 14:33:39;;;;;;;2.17;1.40;;;;;;;;;;5013150;28;20544;-73
2024/02/13 14:36:05;;;;;;;4.50;1.47;;;;;;;;;;5020751;28;20433;-73
2024/02/13 14:38:33;;;;;;;3.20;1.63;;;;;;;;;;5013809;28;20855;-72
2024/02/13 14:40:59;;;;;;;15.70;3.10;;;;;;;;;;5013860;28;20434;-72
2024/02/13 14:43:25;;;;;;;2.20;1.33;;;;;;;;;;5013165;28;20477;-72
2024/02/13 14:45:52;;;;;;;6.10;1.50;;;;;;;;;;5013288;28;20501;-74
2024/02/13 14:48:18;;;;;;;4.30;1.57;;;;;;;;;;5020590;28;20901;-73
2024/02/13 14:50:46;;;;;;;3.50;1.37;;;;;;;;;;5019975;28;21056;-73
2024/02/13 14:53:16;;;;;;;5.43;2.40;;;;;;;;;;5024665;28;20492;-73
2024/02/13 14:55:42;;;;;;;4.83;1.80;;;;;;;;;;5030973;28;20432;-73
2024/02/13 14:58:08;;;;;;;2.60;1.50;;;;;;;;;;5024885;28;20520;-74
2024/02/13 15:00:35;;;;;;;5.13;1.67;;;;;;;;;;5012966;28;20418;-74
2024/02/13 15:03:00;;;;;;;5.30;1.30;;;;;;;;;;5021221;28;20466;-73
2024/02/13 15:05:27;;;;;;;5.53;1.77;;;;;;;;;;5022778;28;20786;-73
2024/02/13 15:07:53;;;;;;;2.20;2.00;;;;;;;;;;5027729;28;20441;-73
2024/02/13 15:10:20;;;;;;;3.97;1.83;;;;;;;;;;5019477;28;20409;-73
2024/02/13 15:12:46;;;;;;;4.27;1.70;;;;;;;;;;5028702;28;20457;-74
2024/02/13 15:15:17;;;;;;;4.50;1.73;;;;;;;;;;5017955;28;20497;-74
2024/02/13 15:17:43;;;;;;;2.63;1.40;;;;;;;;;;5020847;28;20426;-74
2024/02/13 15:20:09;;;;;;;4.10;1.70;;;;;;;;;;5012836;28;20428;-74
2024/02/13 15:22:35;;;;;;;3.70;1.63;;;;;;;;;;5012547;28;20466;-74
2024/02/13 15:25:03;;;;;;;2.00;1.43;;;;;;;;;;5012616;28;20485;-73
2024/02/13 15:27:30;;;;;;;1.40;1.30;;;;;;;;;;5012193;28;20428;-74
2024/02/13 15:29:55;;;;;;;3.50;1.33;;;;;;;;;;5012384;28;20470;-74
2024/02/13 15:32:22;;;;;;;5.03;1.67;;;;;;;;;;5012718;28;20426;-75
2024/02/13 15:34:48;;;;;;;4.33;1.63;;;;;;;;;;5013019;28;20493;-74
2024/02/13 15:48:15;;;;;;;1.97;1.67;;;;;;;;;;4992857;28;20390;-73
2024/02/13 15:50:41;;;;;;;4.53;1.83;;;;;;;;;;4993737;28;20415;-75
2024/02/13 15:53:08;;;;;;;4.73;1.87;;;;;;;;;;5012541;28;20800;-74
2024/02/13 15:55:35;;;;;;;3.07;1.77;;;;;;;;;;5014007;28;20410;-74
2024/02/13 15:58:02;;;;;;;5.57;2.00;;;;;;;;;;5031189;28;20423;-74
2024/02/13 16:00:30;;;;;;;5.13;1.53;;;;;;;;;;5031791;28;20417;-75
2024/02/13 16:02:56;;;;;;;6.50;1.97;;;;;;;;;;5012875;28;20467;-75
2024/02/13 16:05:28;;;;;;;4.10;1.80;;;;;;;;;;5027807;28;20790;-75
2024/02/13 16:07:55;;;;;;;4.43;1.60;;;;;;;;;;5031407;28;20857;-74
2024/02/13 16:10:22;;;;;;;3.13;1.60;;;;;;;;;;5031630;28;20818;-74
2024/02/13 16:12:48;;;;;;;1.57;1.50;;;;;;;;;;5014724;28;20458;-74
2024/02/13 16:15:16;;;;;;;3.13;1.23;;;;;;;;;;5012173;28;20838;-76
2024/02/13 16:17:43;;;;;;;5.90;2.30;;;;;;;;;;5013087;28;20520;-73
2024/02/13 16:20:10;;;;;;;4.30;1.70;;;;;;;;;;5032264;28;20445;-75
2024/02/13 16:22:37;;;;;;;3.90;1.40;;;;;;;;;;5016525;28;20520;-75
2024/02/13 16:25:05;;;;;;;4.83;1.70;;;;;;;;;;5011944;28;20441;-75
2024/02/13 16:27:32;;;;;;;6.60;2.50;;;;;;;;;;5012546;28;20414;-75
2024/02/13 16:29:58;;;;;;;2.23;1.70;;;;;;;;;;5025715;28;20910;-75
2024/02/13 16:32:24;;;;;;;2.00;1.47;;;;;;;;;;5032326;28;20437;-75
2024/02/13 16:34:51;;;;;;;3.77;1.50;;;;;;;;;;5031674;28;20769;-74
2024/02/13 16:37:17;;;;;;;3.07;1.50;;;;;;;;;;5032679;28;20471;-76
2024/02/13 16:39:43;;;;;;;6.47;1.77;;;;;;;;;;5033100;28;20760;-76
2024/02/13 16:42:11;;;;;;;3.33;1.67;;;;;;;;;;5040009;28;20416;-79
2024/02/13 16:44:37;;;;;;;3.27;1.47;;;;;;;;;;5040112;28;20584;-76
2024/02/13 16:47:07;;;;;;;5.37;2.60;;;;;;;;;;5039394;28;20437;-74
2024/02/13 16:49:36;;;;;;;3.97;1.67;;;;;;;;;;5035143;28;20412;-75
2024/02/13 16:52:02;;;;;;;6.07;1.80;;;;;;;;;;5035249;28;20764;-76
2024/02/13 16:54:29;;;;;;;4.70;1.80;;;;;;;;;;5036122;28;20800;-76
2024/02/13 16:56:58;;;;;;;2.73;1.67;;;;;;;;;;5035395;28;20508;-75
2024/02/13 16:59:24;;;;;;;3.90;1.83;;;;;;;;;;5035401;28;20433;-76
2024/02/13 17:01:50;;;;;;;3.10;1.90;;;;;;;;;;5035158;28;20408;-76
2024/02/13 17:04:16;;;;;;;4.63;2.33;;;;;;;;;;5035209;28;20480;-76
2024/02/13 17:06:43;;;;;;;6.40;2.30;;;;;;;;;;5035174;28;20436;-77
2024/02/13 17:09:09;;;;;;;8.17;2.30;;;;;;;;;;5035067;28;20408;-74
2024/02/13 17:11:35;;;;;;;1.93;1.67;;;;;;;;;;5034892;28;20503;-76
2024/02/13 17:14:03;;;;;;;4.00;1.90;;;;;;;;;;5035384;28;20947;-76
2024/02/13 17:16:31;;;;;;;10.97;3.00;;;;;;;;;;5034605;28;20504;-74
2024/02/13 17:18:57;;;;;;;8.80;2.60;;;;;;;;;;5035082;28;20445;-75
2024/02/13 17:21:23;;;;;;;3.43;1.67;;;;;;;;;;5035383;28;20613;-75
2024/02/13 17:23:49;;;;;;;2.57;1.83;;;;;;;;;;5035116;28;20465;-77
2024/02/13 17:26:19;;;;;;;7.27;2.20;;;;;;;;;;5034937;28;20405;-75
2024/02/13 17:28:45;;;;;;;5.73;1.93;;;;;;;;;;5034693;28;20423;-74
2024/02/13 17:31:11;;;;;;;4.50;2.50;;;;;;;;;;5034640;28;20436;-75
2024/02/13 17:33:37;;;;;;;6.70;2.50;;;;;;;;;;5034413;28;20749;-75
2024/02/13 17:36:03;;;;;;;5.47;2.37;;;;;;;;;;5034531;28;20591;-75
2024/02/13 17:38:29;;;;;;;4.90;2.00;;;;;;;;;;5034652;28;20424;-75
2024/02/13 17:40:55;;;;;;;5.63;2.83;;;;;;;;;;5034461;28;20410;-75
2024/02/13 17:43:21;;;;;;;2.50;2.00;;;;;;;;;;5034941;28;20469;-75
2024/02/13 17:45:47;;;;;;;7.50;2.50;;;;;;;;;;5038934;28;20431;-75
2024/02/13 17:48:13;;;;;;;6.67;3.03;;;;;;;;;;5035037;28;20425;-75
2024/02/13 17:50:39;;;;;;;12.17;3.07;;;;;;;;;;5033899;28;20920;-74
2024/02/13 17:53:06;;;;;;;4.87;2.43;;;;;;;;;;5034144;28;20645;-75
2024/02/13 17:55:33;;;;;;;2.67;2.07;;;;;;;;;;5034427;28;20422;-75
2024/02/13 17:57:59;;;;;;;8.10;3.07;;;;;;;;;;5034919;28;20460;-76
2024/02/13 18:00:25;;;;;;;7.90;2.80;;;;;;;;;;5034362;28;20421;-76
2024/02/13 18:02:51;;;;;;;9.07;3.53;;;;;;;;;;5034660;28;20492;-75
2024/02/13 18:05:18;;;;;;;8.23;3.63;;;;;;;;;;5034569;28;20445;-76
2024/02/13 18:07:44;;;;;;;9.40;2.70;;;;;;;;;;5035500;28;20923;-73
2024/02/13 18:10:10;;;;;;;4.17;2.70;;;;;;;;;;5019359;28;20409;-75
2024/02/13 18:12:37;;;;;;;3.83;2.57;;;;;;;;;;5079392;22;21058;-73
2024/02/13 18:15:03;;;;;;;5.03;3.00;;;;;;;;;;5032383;28;20519;-74
2024/02/13 18:17:29;;;;;;;8.17;3.73;;;;;;;;;;5033814;28;20939;-74
2024/02/13 18:19:55;;;;;;;6.03;3.00;;;;;;;;;;5033354;28;20429;-74
2024/02/13 18:22:21;;;;;;;13.67;5.70;;;;;;;;;;5038874;28;20468;-74
2024/02/13 18:24:47;;;;;;;17.33;6.17;;;;;;;;;;5040052;28;20456;-74
2024/02/13 18:27:13;;;;;;;10.53;4.90;;;;;;;;;;5039998;28;20413;-74
2024/02/13 18:29:40;;;;;;;15.60;5.60;;;;;;;;;;5033944;28;20432;-74
2024/02/13 18:32:07;;;;;;;14.40;6.03;;;;;;;;;;5034790;28;20416;-74
2024/02/13 18:34:33;;;;;;;11.63;6.20;;;;;;;;;;5033338;28;20429;-75
2024/02/13 18:36:59;;;;;;;13.80;6.37;;;;;;;;;;5033555;28;20405;-75
2024/02/13 18:39:25;;;;;;;13.57;5.83;;;;;;;;;;5035078;28;20488;-74
2024/02/13 18:41:51;;;;;;;15.97;6.87;;;;;;;;;;5028161;28;20529;-74
2024/02/13 18:44:18;;;;;;;9.07;4.23;;;;;;;;;;5014557;28;20840;-74
2024/02/13 18:46:45;;;;;;;12.70;5.20;;;;;;;;;;5013802;28;20406;-75
2024/02/13 18:49:11;;;;;;;13.50;5.90;;;;;;;;;;5014277;28;20417;-74
2024/02/13 18:51:37;;;;;;;13.43;6.70;;;;;;;;;;5013251;28;20916;-74
2024/02/13 18:54:03;;;;;;;11.00;4.70;;;;;;;;;;5013914;28;20434;-74
2024/02/13 18:56:32;;;;;;;12.67;5.40;;;;;;;;;;5025772;28;20421;-73
2024/02/13 18:58:59;;;;;;;9.90;5.57;;;;;;;;;;5027849;28;20414;-76
2024/02/13 19:01:25;;;;;;;6.83;4.53;;;;;;;;;;5013386;28;20464;-75
2024/02/13 19:03:51;;;;;;;13.17;5.60;;;;;;;;;;5010817;28;20493;-74
2024/02/13 19:06:18;;;;;;;14.83;5.90;;;;;;;;;;5012951;28;20947;-74
2024/02/13 19:08:44;;;;;;;10.20;4.80;;;;;;;;;;5012981;28;20747;-75
2024/02/13 19:11:10;;;;;;;13.50;6.60;;;;;;;;;;5012746;28;20406;-75
2024/02/13 19:13:36;;;;;;;21.80;6.33;;;;;;;;;;5012907;28;20537;-75
2024/02/13 19:16:02;;;;;;;11.43;5.93;;;;;;;;;;5016069;28;20427;-75
2024/02/13 19:18:28;;;;;;;19.90;6.70;;;;;;;;;;5031854;28;20500;-74
2024/02/13 19:20:55;;;;;;;15.53;6.60;;;;;;;;;;5033145;28;20416;-76
2024/02/13 19:23:21;;;;;;;14.03;6.43;;;;;;;;;;5032418;28;20547;-75
2024/02/13 19:25:48;;;;;;;17.03;7.73;;;;;;;;;;5032496;28;20417;-75
2024/02/13 19:28:16;;;;;;;11.63;5.97;;;;;;;;;;5032362;28;20463;-75
2024/02/13 19:30:42;;;;;;;14.40;7.30;;;;;;;;;;5032218;28;20409;-74
2024/02/13 19:33:09;;;;;;;12.00;6.73;;;;;;;;;;5014943;28;20460;-74
2024/02/13 19:35:35;;;;;;;12.47;6.33;;;;;;;;;;5012351;28;20406;-74
2024/02/13 19:38:01;;;;;;;8.10;5.80;;;;;;;;;;5019092;28;20948;-74
2024/02/13 19:40:27;;;;;;;16.40;5.90;;;;;;;;;;5023176;28;20517;-74
2024/02/13 19:42:53;;;;;;;9.47;6.50;;;;;;;;;;5012345;28;20556;-74
2024/02/13 19:45:20;;;;;;;20.37;5.70;;;;;;;;;;5012106;28;20501;-76
2024/02/13 19:47:47;;;;;;;11.40;5.73;;;;;;;;;;5012452;28;20908;-74
2024/02/13 19:50:14;;;;;;;15.00;6.97;;;;;;;;;;5012233;28;20575;-74
2024/02/13 19:52:40;;;;;;;12.87;6.67;;;;;;;;;;5012428;28;20482;-75
2024/02/13 19:55:07;;;;;;;13.87;6.30;;;;;;;;;;5011135;28;20426;-74
2024/02/13 19:57:33;;;;;;;15.90;6.40;;;;;;;;;;5012187;28;20828;-75
2024/02/13 20:00:02;;;;;;;22.70;6.70;;;;;;;;;;5012242;28;20425;-76
2024/02/13 20:02:30;;;;;;;17.83;6.50;;;;;;;;;;5012102;28;20480;-74
2024/02/13 20:04:57;;;;;;;18.10;6.80;;;;;;;;;;5011973;28;20430;-74
2024/02/13 20:07:23;;;;;;;16.00;5.77;;;;;;;;;;5012078;28;20489;-74
2024/02/13 20:09:49;;;;;;;13.20;6.00;;;;;;;;;;5010969;28;20509;-74
2024/02/13 20:12:17;;;;;;;16.53;7.13;;;;;;;;;;5012138;28;20414;-74
2024/02/13 20:14:44;;;;;;;16.73;6.40;;;;;;;;;;5011821;28;20815;-73
2024/02/13 20:17:10;;;;;;;15.50;7.10;;;;;;;;;;5012396;28;20433;-74
2024/02/13 20:19:36;;;;;;;12.53;6.13;;;;;;;;;;5012421;28;20814;-75
2024/02/13 20:22:02;;;;;;;12.17;6.03;;;;;;;;;;5011917;28;20433;-73
2024/02/13 20:24:28;;;;;;;18.63;6.27;;;;;;;;;;5011808;28;20438;-75
2024/02/13 20:26:55;;;;;;;18.03;7.07;;;;;;;;;;5010609;28;20414;-75
2024/02/13 20:29:21;;;;;;;12.17;6.63;;;;;;;;;;5012025;28;20424;-74
2024/02/13 20:31:47;;;;;;;25.50;6.87;;;;;;;;;;5012308;28;20407;-75
2024/02/13 20:34:13;;;;;;;14.20;6.00;;;;;;;;;;5011941;28;20484;-74
2024/02/13 20:36:40;;;;;;;10.53;5.93;;;;;;;;;;5010649;28;20468;-73
2024/02/13 20:39:10;;;;;;;13.20;6.30;;;;;;;;;;5010692;28;20573;-74
2024/02/13 20:41:42;;;;;;;9.47;5.73;;;;;;;;;;5011380;28;20902;-74
2024/02/13 20:44:09;;;;;;;14.93;6.50;;;;;;;;;;5012096;28;20468;-75
2024/02/13 20:46:35;;;;;;;12.50;5.77;;;;;;;;;;5015104;28;20406;-75
2024/02/13 20:49:02;;;;;;;9.40;4.90;;;;;;;;;;5012865;28;20426;-75